Time;durP1;ratioP1;P1;durP2;ratioP2;P2;SDS_P1;SDS_P2;PMS_P1;PMS_P2;Temp;Humidity;BMP_temperature;BMP_pressure;BME280_temperature;BME280_humidity;BME280_pressure;Samples;Min_cycle;Max_cycle;Signal;HPM_P1;HPM_P2
2020/12/21 00:00:13;;;;;;;104.97;56.83;;;;;;;2.70;80.17;101262.53;125625;1107;23433;-78
2020/12/21 00:03:02;;;;;;;73.90;40.55;;;;;;;2.74;79.95;101264.02;125669;1108;23591;-79
2020/12/21 00:05:30;;;;;;;70.10;40.28;;;;;;;2.78;80.12;101267.34;125667;1108;23840;-79
2020/12/21 00:08:01;;;;;;;62.70;36.33;;;;;;;2.81;80.06;101262.55;125649;1108;23413;-78
2020/12/21 00:10:30;;;;;;;69.27;39.92;;;;;;;2.84;79.78;101273.11;125696;1107;25059;-78
2020/12/21 00:12:58;;;;;;;72.32;41.98;;;;;;;2.87;80.06;101282.79;125656;1107;23485;-79
2020/12/21 00:15:26;;;;;;;62.00;39.70;;;;;;;2.91;80.37;101278.88;125638;1107;23431;-80
2020/12/21 00:17:54;;;;;;;63.63;38.35;;;;;;;2.93;79.76;101282.31;125615;1108;23855;-79
2020/12/21 00:20:23;;;;;;;63.42;36.55;;;;;;;2.96;79.95;101279.38;125583;1108;24437;-80
2020/12/21 00:22:51;;;;;;;70.52;40.28;;;;;;;3.00;79.88;101277.30;125662;1107;26878;-80
2020/12/21 00:25:19;;;;;;;69.77;42.98;;;;;;;3.02;80.11;101270.81;125619;1108;23442;-79
2020/12/21 00:27:47;;;;;;;75.83;45.75;;;;;;;3.04;80.17;101276.09;125606;1108;23614;-80
2020/12/21 00:30:15;;;;;;;75.63;45.43;;;;;;;3.08;79.89;101280.27;125644;1107;23518;-80
2020/12/21 00:32:44;;;;;;;81.72;51.20;;;;;;;3.10;79.96;101274.76;125607;1108;23446;-79
2020/12/21 00:35:12;;;;;;;86.97;52.38;;;;;;;3.09;79.79;101276.58;125631;1107;23445;-78
2020/12/21 00:37:40;;;;;;;81.73;49.80;;;;;;;3.09;79.98;101273.03;125630;1107;23489;-80
2020/12/21 00:40:08;;;;;;;154.75;74.87;;;;;;;3.06;79.39;101272.29;125662;1108;23434;-79
2020/12/21 00:42:36;;;;;;;97.17;53.13;;;;;;;3.05;79.66;101275.98;125610;1108;23433;-78
2020/12/21 00:45:05;;;;;;;81.07;49.63;;;;;;;3.03;79.40;101277.94;125618;1107;23853;-79
2020/12/21 00:47:34;;;;;;;80.53;45.65;;;;;;;3.01;79.35;101262.86;125595;1108;23482;-80
2020/12/21 00:50:04;;;;;;;81.78;46.20;;;;;;;2.98;79.65;101263.94;125628;1107;23451;-78
2020/12/21 00:52:33;;;;;;;76.70;46.50;;;;;;;2.96;79.42;101276.67;125686;1108;23457;-79
2020/12/21 00:55:01;;;;;;;76.60;44.10;;;;;;;2.93;79.41;101279.62;125622;1107;25467;-79
2020/12/21 00:57:32;;;;;;;80.30;45.55;;;;;;;2.90;79.45;101271.76;125588;1107;24110;-78
2020/12/21 01:00:07;;;;;;;74.25;43.52;;;;;;;2.89;79.17;101274.59;125608;1108;23391;-78
2020/12/21 01:02:35;;;;;;;79.35;45.30;;;;;;;2.86;79.37;101268.47;125680;1108;23437;-79
2020/12/21 01:05:03;;;;;;;82.20;46.60;;;;;;;2.87;79.32;101272.02;125756;1108;23430;-79
2020/12/21 01:07:31;;;;;;;75.30;45.17;;;;;;;2.84;79.12;101275.81;125634;1108;23428;-79
2020/12/21 01:09:59;;;;;;;84.87;50.03;;;;;;;2.83;79.19;101278.61;125597;1108;23569;-79
2020/12/21 01:12:29;;;;;;;86.20;47.53;;;;;;;2.80;79.36;101277.02;125599;1108;27003;-78
2020/12/21 01:14:57;;;;;;;81.05;48.73;;;;;;;2.77;79.12;101271.84;125631;1108;25887;-79
2020/12/21 01:17:32;;;;;;;76.43;46.50;;;;;;;2.76;79.36;101270.15;125658;1108;25259;-79
2020/12/21 01:20:01;;;;;;;82.57;50.83;;;;;;;2.74;79.43;101268.55;125678;1108;26866;-78
2020/12/21 01:22:31;;;;;;;85.75;51.40;;;;;;;2.72;79.03;101275.89;125724;1108;23525;-79
2020/12/21 01:24:59;;;;;;;87.13;52.00;;;;;;;2.70;79.30;101275.16;125616;1107;23436;-79
2020/12/21 01:27:27;;;;;;;97.40;57.98;;;;;;;2.67;78.99;101278.95;125585;1107;23400;-80
2020/12/21 01:29:55;;;;;;;87.27;52.23;;;;;;;2.64;79.20;101277.33;125635;1107;23594;-79
2020/12/21 01:32:23;;;;;;;81.35;47.15;;;;;;;2.63;79.45;101282.86;125622;1108;26947;-79
2020/12/21 01:34:51;;;;;;;77.78;46.53;;;;;;;2.61;79.16;101287.50;125712;1108;23546;-80
2020/12/21 01:37:20;;;;;;;86.82;48.58;;;;;;;2.59;79.40;101282.22;125545;1107;23454;-79
2020/12/21 01:39:48;;;;;;;81.32;45.40;;;;;;;2.58;79.55;101277.83;125591;1108;24005;-79
2020/12/21 01:42:17;;;;;;;83.80;49.42;;;;;;;2.56;79.37;101269.00;125566;1107;23578;-80
2020/12/21 01:44:49;;;;;;;80.80;45.43;;;;;;;2.55;79.57;101275.34;125660;1107;23382;-80
2020/12/21 01:47:19;;;;;;;85.45;46.05;;;;;;;2.55;79.38;101269.95;125619;1108;23584;-78
2020/12/21 01:49:49;;;;;;;74.33;45.33;;;;;;;2.53;79.58;101274.60;125663;1107;23923;-78
2020/12/21 01:52:18;;;;;;;77.50;46.05;;;;;;;2.52;79.58;101272.90;125619;1107;23474;-80
2020/12/21 01:54:48;;;;;;;65.95;39.25;;;;;;;2.49;79.23;101278.50;125624;1108;23430;-79
2020/12/21 01:57:17;;;;;;;70.83;42.90;;;;;;;2.47;79.53;101272.37;125641;1107;23452;-79
2020/12/21 01:59:45;;;;;;;63.45;37.75;;;;;;;2.43;79.26;101262.80;125607;1108;23391;-80
2020/12/21 02:02:13;;;;;;;74.97;45.15;;;;;;;2.42;79.58;101264.64;125621;1108;23392;-80
2020/12/21 02:04:43;;;;;;;70.57;42.23;;;;;;;2.41;79.45;101262.06;125637;1108;27500;-78
2020/12/21 02:07:14;;;;;;;68.97;40.20;;;;;;;2.39;79.44;101266.70;125624;1108;23487;-78
2020/12/21 02:09:43;;;;;;;64.92;40.65;;;;;;;2.36;79.74;101264.25;125635;1107;23437;-77
2020/12/21 02:12:11;;;;;;;72.58;41.30;;;;;;;2.35;79.55;101260.71;125641;1108;23511;-78
2020/12/21 02:14:39;;;;;;;95.93;49.63;;;;;;;2.35;79.73;101249.09;125653;1107;23457;-78
2020/12/21 02:17:07;;;;;;;222.40;93.87;;;;;;;2.35;79.61;101257.17;125715;1107;24467;-77
2020/12/21 02:19:36;;;;;;;258.53;110.13;;;;;;;2.32;79.63;101249.30;125702;1108;23540;-78
2020/12/21 02:22:04;;;;;;;177.70;79.33;;;;;;;2.29;79.54;101255.78;125613;1108;23444;-78
2020/12/21 02:24:32;;;;;;;136.03;65.57;;;;;;;2.26;79.53;101258.69;125643;1107;26440;-78
2020/12/21 02:27:00;;;;;;;92.13;48.87;;;;;;;2.21;79.34;101259.04;125610;1108;23400;-79
2020/12/21 02:29:29;;;;;;;84.32;46.02;;;;;;;2.18;79.54;101258.44;125634;1108;23410;-78
2020/12/21 02:31:59;;;;;;;70.27;40.00;;;;;;;2.17;79.44;101259.39;125647;1108;23438;-78
2020/12/21 02:34:27;;;;;;;79.00;45.12;;;;;;;2.14;79.42;101263.18;125598;1108;26901;-78
2020/12/21 02:36:55;;;;;;;77.42;42.00;;;;;;;2.12;79.60;101257.05;125619;1108;24430;-79
2020/12/21 02:39:24;;;;;;;79.30;42.67;;;;;;;2.12;79.51;101264.27;125593;1108;23475;-78
2020/12/21 02:41:53;;;;;;;73.37;40.38;;;;;;;2.11;79.67;101257.16;125669;1108;23405;-78
2020/12/21 02:44:21;;;;;;;74.77;42.50;;;;;;;2.09;79.54;101259.10;125715;1108;23488;-79
2020/12/21 02:46:49;;;;;;;78.78;44.27;;;;;;;2.06;79.55;101257.50;125611;1108;23453;-78
2020/12/21 02:49:17;;;;;;;75.28;43.45;;;;;;;2.04;79.55;101259.45;125639;1108;23794;-79
2020/12/21 02:51:52;;;;;;;76.40;42.48;;;;;;;2.01;79.68;101259.69;125607;1108;23353;-79
2020/12/21 02:54:20;;;;;;;74.10;43.50;;;;;;;1.99;79.66;101251.72;125655;1108;23761;-79
2020/12/21 02:56:53;;;;;;;63.00;38.03;;;;;;;1.98;79.57;101252.68;125620;1107;27698;-79
2020/12/21 02:59:21;;;;;;;;;;;;;;;1.95;79.64;101250.23;125630;1108;23404;-78
2020/12/21 03:01:49;;;;;;;68.37;42.13;;;;;;;1.93;79.74;101248.63;125629;1108;21561;-78
2020/12/21 03:04:17;;;;;;;66.60;39.90;;;;;;;1.93;79.86;101254.02;125622;1108;23361;-77
2020/12/21 03:06:45;;;;;;;70.30;38.37;;;;;;;1.91;79.76;101247.88;125657;1107;23414;-79
2020/12/21 03:09:13;;;;;;;75.72;41.40;;;;;;;1.90;79.70;101248.84;125629;1108;23831;-78
2020/12/21 03:11:46;;;;;;;283.90;119.57;;;;;;;1.89;79.84;101252.52;125663;1108;23420;-78
2020/12/21 03:14:14;;;;;;;165.75;77.00;;;;;;;1.84;79.68;101251.02;125593;1107;23416;-78
2020/12/21 03:16:43;;;;;;;235.57;102.30;;;;;;;1.79;79.47;101247.83;125625;1108;23563;-78
2020/12/21 03:19:11;;;;;;;416.27;189.85;;;;;;;1.76;79.49;101248.03;125597;1107;23564;-77
2020/12/21 03:21:39;;;;;;;162.10;78.72;;;;;;;1.76;79.75;101239.96;125609;1108;23381;-78
2020/12/21 03:24:07;;;;;;;99.75;51.00;;;;;;;1.76;79.85;101247.18;125676;1108;23495;-78
2020/12/21 03:26:36;;;;;;;93.97;49.37;;;;;;;1.75;79.82;101237.37;125591;1108;26472;-79
2020/12/21 03:29:04;;;;;;;88.58;44.60;;;;;;;1.71;79.48;101238.57;125605;1108;24953;-78
2020/12/21 03:31:32;;;;;;;77.05;40.33;;;;;;;1.66;79.58;101236.22;125703;1108;26613;-79
2020/12/21 03:34:00;;;;;;;84.67;42.20;;;;;;;1.63;79.65;101241.84;125619;1108;23917;-78
2020/12/21 03:36:28;;;;;;;87.73;46.00;;;;;;;1.59;79.73;101234.97;125624;1107;23357;-79
2020/12/21 03:38:56;;;;;;;80.77;45.17;;;;;;;1.55;79.83;101238.84;125639;1108;25405;-78
2020/12/21 03:41:25;;;;;;;76.70;41.18;;;;;;;1.52;79.72;101234.55;125646;1108;26846;-79
2020/12/21 03:43:53;;;;;;;73.12;40.28;;;;;;;1.49;79.66;101229.38;125629;1108;25411;-79
2020/12/21 03:46:21;;;;;;;79.00;40.80;;;;;;;1.49;79.88;101233.91;125583;1108;23421;-79
2020/12/21 03:48:50;;;;;;;83.05;40.65;;;;;;;1.46;80.01;101224.23;125667;1108;23576;-78
2020/12/21 03:51:18;;;;;;;87.00;42.38;;;;;;;1.46;79.94;101215.32;125618;1107;23357;-79
2020/12/21 03:53:46;;;;;;;74.15;39.50;;;;;;;1.43;79.98;101228.02;125656;1108;26871;-79
2020/12/21 03:56:14;;;;;;;77.55;42.08;;;;;;;1.42;79.99;101234.34;125625;1108;23430;-78
2020/12/21 03:58:42;;;;;;;77.00;40.70;;;;;;;1.41;79.93;101221.89;125660;1107;23381;-78
2020/12/21 04:01:11;;;;;;;60.03;36.33;;;;;;;1.40;79.92;101230.05;125641;1107;23442;-78
2020/12/21 04:03:39;;;;;;;67.85;36.88;;;;;;;1.40;80.04;101224.68;125639;1107;23600;-79
2020/12/21 04:06:08;;;;;;;78.28;39.13;;;;;;;1.39;80.03;101233.73;125645;1108;23383;-79
2020/12/21 04:08:36;;;;;;;67.80;40.13;;;;;;;1.38;80.19;101224.78;125611;1108;26443;-79
2020/12/21 04:11:06;;;;;;;75.17;37.60;;;;;;;1.37;80.32;101219.53;125591;1107;23429;-79
2020/12/21 04:13:35;;;;;;;54.70;34.47;;;;;;;1.37;80.06;101220.39;125757;1107;23437;-79
2020/12/21 04:16:06;;;;;;;65.75;37.88;;;;;;;1.34;80.09;101219.74;125632;1108;25251;-78
2020/12/21 04:18:34;;;;;;;63.45;34.38;;;;;;;1.32;80.11;101227.91;125617;1108;25764;-78
2020/12/21 04:21:03;;;;;;;54.73;32.25;;;;;;;1.30;79.99;101234.37;125660;1108;23366;-79
2020/12/21 04:23:31;;;;;;;59.57;33.13;;;;;;;1.29;80.00;101229.98;125611;1108;23350;-78
2020/12/21 04:25:59;;;;;;;56.80;31.68;;;;;;;1.28;79.94;101230.93;125619;1108;23465;-79
2020/12/21 04:28:28;;;;;;;75.63;38.47;;;;;;;1.27;80.32;101232.77;125673;1108;23420;-78
2020/12/21 04:30:56;;;;;;;165.37;74.03;;;;;;;1.31;80.50;101231.58;125656;1108;23473;-79
2020/12/21 04:33:24;;;;;;;209.85;93.85;;;;;;;1.32;80.30;101235.12;125658;1108;26931;-78
2020/12/21 04:36:09;;;;;;;178.32;74.42;;;;;;;1.32;80.55;101233.28;125597;1108;23368;-78
2020/12/21 04:38:40;;;;;;;120.17;51.83;;;;;;;1.34;80.39;101236.72;125661;1108;23421;-75
2020/12/21 04:41:10;;;;;;;84.95;41.05;;;;;;;1.37;80.77;101238.36;125553;1108;23363;-79
2020/12/21 04:43:38;;;;;;;56.92;34.73;;;;;;;1.40;80.63;101247.04;125683;1107;23421;-79
2020/12/21 04:46:08;;;;;;;63.40;34.55;;;;;;;1.40;80.65;101236.29;125652;1107;23350;-80
2020/12/21 04:48:40;;;;;;;;;;;;;;;1.42;80.48;101238.88;125636;1108;23480;-78
2020/12/21 04:51:09;;;;;;;47.90;27.77;;;;;;;1.40;80.67;101230.05;125610;1108;21537;-79
2020/12/21 04:53:39;;;;;;;61.33;31.37;;;;;;;1.39;80.60;101242.65;125606;1108;26538;-79
2020/12/21 04:56:08;;;;;;;59.75;33.00;;;;;;;1.43;80.73;101232.55;125670;1108;23433;-78
2020/12/21 04:58:36;;;;;;;65.35;35.48;;;;;;;1.43;80.60;101227.16;125628;1108;23431;-78
2020/12/21 05:01:04;;;;;;;59.27;31.37;;;;;;;1.45;80.84;101235.95;125605;1108;23485;-77
2020/12/21 05:03:32;;;;;;;59.45;33.53;;;;;;;1.49;80.72;101241.98;125567;1108;23398;-78
2020/12/21 05:06:06;;;;;;;66.67;34.53;;;;;;;1.54;80.91;101242.52;125626;1108;23524;-79
2020/12/21 05:08:35;;;;;;;65.17;34.18;;;;;;;1.58;80.78;101238.61;125619;1107;23409;-78
2020/12/21 05:11:05;;;;;;;60.12;34.67;;;;;;;1.62;80.59;101242.80;125594;1108;26593;-78
2020/12/21 05:13:34;;;;;;;54.75;32.13;;;;;;;1.65;80.83;101244.42;125695;1108;23466;-78
2020/12/21 05:16:03;;;;;;;53.05;30.20;;;;;;;1.67;80.93;101242.48;125582;1108;23421;-78
2020/12/21 05:18:35;;;;;;;59.45;30.72;;;;;;;1.67;80.79;101243.34;125637;1108;23967;-80
2020/12/21 05:21:10;;;;;;;47.43;27.23;;;;;;;1.67;80.19;101243.34;125589;1108;23386;-78
2020/12/21 05:23:39;;;;;;;60.95;31.70;;;;;;;1.65;80.64;101247.97;125669;1107;26942;-78
2020/12/21 05:26:10;;;;;;;55.88;31.60;;;;;;;1.68;80.69;101247.73;125656;1108;23420;-77
2020/12/21 05:28:40;;;;;;;59.17;31.90;;;;;;;1.70;80.77;101251.17;125613;1108;23519;-77
2020/12/21 05:31:11;;;;;;;53.58;30.12;;;;;;;1.72;80.59;101240.31;125687;1107;23370;-77
2020/12/21 05:33:45;;;;;;;50.70;30.20;;;;;;;1.74;80.62;101249.12;125593;1107;23480;-77
2020/12/21 05:36:19;;;;;;;51.47;29.23;;;;;;;1.77;80.58;101249.77;125677;1108;26820;-77
2020/12/21 05:39:04;;;;;;;53.57;34.50;;;;;;;1.80;80.69;101257.60;125564;1108;23411;-74
2020/12/21 05:41:32;;;;;;;60.52;34.00;;;;;;;1.82;80.74;101261.04;125633;1108;23420;-79
2020/12/21 05:44:05;;;;;;;68.60;37.00;;;;;;;1.87;80.44;101254.46;125580;1108;23571;-78
2020/12/21 05:46:34;;;;;;;70.75;38.73;;;;;;;1.87;80.50;101259.84;125659;1108;23474;-78
2020/12/21 05:49:03;;;;;;;76.40;38.75;;;;;;;1.90;80.56;101259.60;125598;1107;23375;-77
2020/12/21 05:51:33;;;;;;;59.48;30.62;;;;;;;1.92;80.61;101263.04;125612;1108;27905;-79
2020/12/21 05:54:04;;;;;;;68.43;36.60;;;;;;;1.94;80.56;101264.67;125675;1108;27999;-79
2020/12/21 05:56:35;;;;;;;65.37;37.55;;;;;;;1.95;80.32;101252.06;125674;1108;23408;-78
2020/12/21 05:59:04;;;;;;;62.43;36.67;;;;;;;1.97;80.48;101252.81;125674;1108;23543;-79
2020/12/21 06:01:32;;;;;;;50.43;33.60;;;;;;;1.95;80.69;101257.45;125646;1108;23811;-79
2020/12/21 06:04:03;;;;;;;55.65;35.08;;;;;;;1.96;80.21;101260.03;125584;1107;23420;-80
2020/12/21 06:06:34;;;;;;;54.35;33.83;;;;;;;1.97;80.38;101260.89;125590;1108;23511;-79
2020/12/21 06:09:05;;;;;;;47.38;30.72;;;;;;;2.01;80.51;101259.69;125575;1107;23522;-79
2020/12/21 06:11:34;;;;;;;54.95;31.05;;;;;;;2.03;80.50;101260.44;125591;1108;23373;-78
2020/12/21 06:14:08;;;;;;;48.05;29.70;;;;;;;2.05;80.38;101263.87;125628;1107;23363;-78
2020/12/21 06:16:37;;;;;;;50.07;30.80;;;;;;;2.09;80.39;101272.56;125623;1108;23378;-78
2020/12/21 06:19:09;;;;;;;51.48;31.07;;;;;;;2.11;80.50;101273.30;125725;1108;23356;-79
2020/12/21 06:21:40;;;;;;;50.43;35.67;;;;;;;2.13;80.32;101276.74;125606;1108;23493;-78
2020/12/21 06:24:21;;;;;;;50.78;36.28;;;;;;;2.13;80.49;101269.52;125606;1107;23362;-79
2020/12/21 06:26:51;;;;;;;44.38;31.40;;;;;;;2.17;80.30;101268.32;125613;1108;26313;-79
2020/12/21 06:29:23;;;;;;;49.90;34.55;;;;;;;2.18;80.25;101275.44;125655;1108;26827;-79
2020/12/21 06:32:02;;;;;;;;;;;;;;;2.18;80.30;101267.36;125704;1107;23899;-78
2020/12/21 06:34:32;;;;;;;47.85;32.10;;;;;;;2.17;80.26;101268.32;125615;1108;22243;-79
2020/12/21 06:37:20;;;;;;;46.57;29.57;;;;;;;2.17;80.25;101279.09;125629;1107;23421;-78
2020/12/21 06:40:06;;;;;;;52.20;33.20;;;;;;;2.18;80.25;101280.83;125590;1108;23423;-76
2020/12/21 06:42:34;;;;;;;46.42;29.52;;;;;;;2.20;80.27;101289.65;125547;1107;23901;-78
2020/12/21 06:45:12;;;;;;;54.73;32.17;;;;;;;2.22;80.26;101285.01;125607;1108;23417;-79
2020/12/21 06:47:42;;;;;;;54.40;32.75;;;;;;;2.26;80.17;101293.69;125644;1107;23402;-78
2020/12/21 06:50:10;;;;;;;53.90;36.88;;;;;;;2.27;80.08;101289.19;125654;1108;23463;-79
2020/12/21 06:52:41;;;;;;;55.05;32.25;;;;;;;2.27;79.96;101289.19;125586;1108;26991;-78
2020/12/21 06:55:09;;;;;;;50.23;32.45;;;;;;;2.27;80.08;101283.80;125641;1108;23571;-78
2020/12/21 06:57:37;;;;;;;49.18;31.48;;;;;;;2.24;80.03;101283.06;125611;1108;23367;-77
2020/12/21 07:00:06;;;;;;;49.80;33.50;;;;;;;2.24;79.98;101291.14;125638;1108;23432;-79
2020/12/21 07:02:34;;;;;;;60.63;35.08;;;;;;;2.24;79.79;101279.48;125619;1107;23392;-78
2020/12/21 07:05:08;;;;;;;56.92;35.70;;;;;;;2.24;79.85;101285.75;125620;1109;23436;-78
2020/12/21 07:07:40;;;;;;;59.95;36.53;;;;;;;2.24;80.02;101295.64;125645;1108;23424;-77
2020/12/21 07:10:13;;;;;;;62.17;38.83;;;;;;;2.28;79.91;101293.59;125677;1108;26830;-76
2020/12/21 07:12:42;;;;;;;100.17;60.13;;;;;;;2.31;80.09;101291.53;125688;1108;26892;-77
2020/12/21 07:15:11;;;;;;;90.20;57.38;;;;;;;2.34;80.08;101301.21;125639;1107;26542;-78
2020/12/21 07:17:39;;;;;;;92.88;54.15;;;;;;;2.36;79.96;101302.80;125573;1108;26469;-75
2020/12/21 07:20:08;;;;;;;60.25;39.48;;;;;;;2.38;80.02;101308.09;125588;1108;23508;-77
2020/12/21 07:22:36;;;;;;;62.17;39.48;;;;;;;2.40;80.12;101306.14;125574;1108;23369;-77
2020/12/21 07:25:04;;;;;;;65.62;41.40;;;;;;;2.43;80.00;101305.89;125557;1107;23378;-78
2020/12/21 07:27:33;;;;;;;73.93;42.83;;;;;;;2.44;80.11;101297.70;125592;1109;23424;-78
2020/12/21 07:30:08;;;;;;;68.25;40.35;;;;;;;2.46;80.07;101300.30;125662;1108;24983;-78
2020/12/21 07:32:37;;;;;;;175.20;94.70;;;;;;;2.49;80.17;101294.66;125333;1108;23511;-77
2020/12/21 07:35:05;;;;;;;324.12;166.15;;;;;;;2.52;80.28;101293.56;125602;1107;23498;-79
2020/12/21 07:37:33;;;;;;;269.80;123.72;;;;;;;2.55;80.07;101298.73;125287;1108;25117;-79
2020/12/21 07:40:02;;;;;;;139.43;65.08;;;;;;;2.57;79.91;101294.95;125653;1108;23508;-78
2020/12/21 07:42:32;;;;;;;97.97;52.43;;;;;;;2.59;79.94;101290.30;125579;1108;23410;-77
2020/12/21 07:45:02;;;;;;;86.82;47.53;;;;;;;2.60;80.13;101289.34;125645;1108;27950;-76
2020/12/21 07:47:34;;;;;;;73.45;43.42;;;;;;;2.62;80.04;101292.78;125687;1108;23374;-79
2020/12/21 07:50:06;;;;;;;89.77;48.13;;;;;;;2.66;80.13;101286.15;125354;1108;23447;-78
2020/12/21 07:52:34;;;;;;;85.35;45.63;;;;;;;2.70;80.18;101286.78;125774;1108;23377;-78
2020/12/21 07:55:03;;;;;;;73.47;39.13;;;;;;;2.74;80.10;101296.35;125612;1108;23369;-78
2020/12/21 07:57:31;;;;;;;73.07;40.65;;;;;;;2.75;80.06;101295.39;125606;1108;26607;-79
2020/12/21 08:00:01;;;;;;;63.10;39.05;;;;;;;2.76;79.96;101294.40;125601;1107;23439;-78
2020/12/21 08:02:33;;;;;;;71.30;40.38;;;;;;;2.79;80.10;101306.77;125683;1108;23422;-77
2020/12/21 08:05:01;;;;;;;70.35;38.28;;;;;;;2.83;79.97;101292.94;125589;1108;23366;-77
2020/12/21 08:07:32;;;;;;;75.72;40.63;;;;;;;2.86;80.16;101295.42;125596;1108;23515;-79
2020/12/21 08:10:00;;;;;;;74.03;43.10;;;;;;;2.91;79.77;101304.98;125603;1108;23470;-78
2020/12/21 08:12:32;;;;;;;72.10;41.15;;;;;;;2.92;79.89;101294.06;125627;1108;23436;-80
2020/12/21 08:15:01;;;;;;;74.47;42.20;;;;;;;2.98;79.70;101300.83;125552;1108;23514;-79
2020/12/21 08:17:31;;;;;;;66.55;37.70;;;;;;;3.00;79.63;101309.66;125663;1107;23506;-77
2020/12/21 08:20:07;;;;;;;75.00;42.78;;;;;;;3.03;80.17;101304.89;125640;1108;23373;-77
2020/12/21 08:22:37;;;;;;;69.72;39.90;;;;;;;3.05;79.79;101308.33;125628;1107;23581;-77
2020/12/21 08:25:10;;;;;;;68.47;39.18;;;;;;;3.08;79.91;101300.98;125647;1108;23487;-76
2020/12/21 08:27:42;;;;;;;65.70;38.88;;;;;;;3.09;79.84;101299.98;125805;1108;23929;-79
2020/12/21 08:30:17;;;;;;;68.43;39.57;;;;;;;3.11;79.31;101311.52;125614;1108;23362;-79
2020/12/21 08:32:47;;;;;;;59.55;36.70;;;;;;;3.12;79.59;101311.41;125736;1108;23562;-78
2020/12/21 08:35:28;;;;;;;67.90;40.17;;;;;;;3.17;79.70;101313.73;125546;1108;23377;-77
2020/12/21 08:38:11;;;;;;;63.83;39.10;;;;;;;3.17;79.71;101305.64;125534;1108;23423;-78
2020/12/21 08:40:41;;;;;;;163.05;76.53;;;;;;;3.19;79.38;101303.69;125657;1108;23369;-78
2020/12/21 08:43:10;;;;;;;338.87;146.07;;;;;;;3.22;79.38;101308.83;125604;1107;25921;-78
2020/12/21 08:45:39;;;;;;;118.93;58.30;;;;;;;3.23;79.38;101315.95;125605;1108;26437;-77
2020/12/21 08:48:07;;;;;;;89.80;48.83;;;;;;;3.24;79.37;101313.14;125520;1108;23539;-76
2020/12/21 08:50:35;;;;;;;71.93;43.33;;;;;;;3.25;79.54;101314.84;125619;1108;23463;-78
2020/12/21 08:53:03;;;;;;;85.57;49.30;;;;;;;3.28;79.12;101311.05;125540;1107;24209;-76
2020/12/21 08:55:31;;;;;;;73.33;45.60;;;;;;;3.32;79.38;101317.06;125545;1108;27933;-77
2020/12/21 08:58:00;;;;;;;89.65;49.33;;;;;;;3.36;79.25;101321.24;125832;1108;23466;-77
2020/12/21 09:00:30;;;;;;;82.88;46.50;;;;;;;3.40;79.71;101317.33;125553;1108;27032;-78
2020/12/21 09:02:58;;;;;;;72.70;44.85;;;;;;;3.43;79.41;101317.92;125550;1107;23418;-78
2020/12/21 09:05:26;;;;;;;74.85;46.42;;;;;;;3.44;78.95;101316.95;125586;1107;26861;-75
2020/12/21 09:07:54;;;;;;;99.63;57.90;;;;;;;3.46;79.21;101320.39;125569;1107;23366;-77
2020/12/21 09:10:22;;;;;;;81.45;47.98;;;;;;;3.48;79.44;101312.19;125600;1108;23417;-78
2020/12/21 09:12:51;;;;;;;66.00;42.53;;;;;;;3.51;78.64;101314.63;125590;1108;26472;-77
2020/12/21 09:15:19;;;;;;;66.70;41.23;;;;;;;3.49;78.62;101316.59;125579;1107;23418;-77
2020/12/21 09:17:47;;;;;;;66.50;44.00;;;;;;;3.51;78.92;101314.63;125621;1107;23360;-82
2020/12/21 09:20:15;;;;;;;109.25;62.15;;;;;;;3.53;79.03;101309.97;125674;1107;27499;-79
2020/12/21 09:22:45;;;;;;;60.45;37.78;;;;;;;3.53;78.92;101314.51;125633;1108;23363;-83
2020/12/21 09:25:14;;;;;;;74.45;46.42;;;;;;;3.53;78.90;101317.21;125741;1108;26817;-79
2020/12/21 09:27:43;;;;;;;78.20;49.58;;;;;;;3.55;78.56;101316.09;125598;1108;23428;-79
2020/12/21 09:30:11;;;;;;;66.33;44.33;;;;;;;3.58;78.60;101323.08;125580;1108;23430;-79
2020/12/21 09:32:40;;;;;;;79.40;50.53;;;;;;;3.58;78.85;101320.39;125573;1108;23355;-79
2020/12/21 09:35:09;;;;;;;72.03;46.18;;;;;;;3.60;78.32;101313.03;125578;1108;23371;-80
2020/12/21 09:37:37;;;;;;;77.13;50.40;;;;;;;3.60;78.57;101318.42;125624;1108;23363;-80
2020/12/21 09:40:19;;;;;;;81.83;54.20;;;;;;;3.65;78.81;101318.94;125564;1108;23571;-80
2020/12/21 09:42:48;;;;;;;99.90;61.25;;;;;;;3.65;78.80;101327.03;125629;1107;23433;-79
2020/12/21 09:45:16;;;;;;;84.62;52.93;;;;;;;3.67;78.35;101322.38;125758;1107;23375;-78
2020/12/21 09:47:45;;;;;;;84.27;53.93;;;;;;;3.68;78.18;101326.77;125644;1108;23406;-75
2020/12/21 09:50:13;;;;;;;82.88;51.73;;;;;;;3.70;78.27;101323.95;125655;1108;23460;-76
2020/12/21 09:52:43;;;;;;;80.55;51.18;;;;;;;3.71;78.52;101320.27;125662;1108;23423;-76
2020/12/21 09:55:13;;;;;;;78.57;48.48;;;;;;;3.74;78.41;101320.88;125809;1108;23393;-78
2020/12/21 09:57:43;;;;;;;72.83;49.57;;;;;;;3.74;78.70;101326.28;125850;1107;23391;-77
2020/12/21 10:00:11;;;;;;;67.97;46.68;;;;;;;3.79;78.65;101318.66;125791;1107;23374;-77
2020/12/21 10:02:42;;;;;;;81.57;61.13;;;;;;;3.83;78.27;101325.53;125829;1108;23373;-77
2020/12/21 10:05:10;;;;;;;98.50;69.82;;;;;;;3.84;78.12;101316.47;125690;1107;26991;-78
2020/12/21 10:07:39;;;;;;;100.15;73.60;;;;;;;3.85;78.38;101320.87;125429;1107;27155;-80
2020/12/21 10:10:07;;;;;;;95.28;63.00;;;;;;;3.89;78.18;101316.09;125337;1108;23579;-80
2020/12/21 10:12:35;;;;;;;97.47;66.43;;;;;;;3.89;78.20;101314.23;125386;1108;23408;-79
2020/12/21 10:15:04;;;;;;;79.65;53.60;;;;;;;3.91;78.26;101324.07;125399;1107;23436;-79
2020/12/21 10:17:32;;;;;;;81.85;54.15;;;;;;;3.94;78.56;101326.51;125452;1107;23404;-80
2020/12/21 10:20:00;;;;;;;70.87;48.25;;;;;;;3.93;78.20;101324.80;125408;1107;27878;-80
2020/12/21 10:22:28;;;;;;;85.60;60.00;;;;;;;3.91;78.35;101315.97;125355;1109;24697;-81
2020/12/21 10:24:56;;;;;;;90.63;54.97;;;;;;;3.90;78.07;101315.09;125376;1108;23423;-78
2020/12/21 10:27:25;;;;;;;89.60;53.47;;;;;;;3.88;78.30;101317.94;125487;1108;23478;-81
2020/12/21 10:29:53;;;;;;;68.40;45.57;;;;;;;3.86;78.16;101313.62;125422;1108;26830;-79
2020/12/21 10:32:21;;;;;;;76.28;47.73;;;;;;;3.86;78.17;101319.90;125393;1107;25825;-79
2020/12/21 10:34:49;;;;;;;85.63;52.33;;;;;;;3.86;78.27;101317.20;125357;1107;23434;-79
2020/12/21 10:37:17;;;;;;;85.15;52.10;;;;;;;3.92;78.12;101328.47;125392;1108;24843;-80
2020/12/21 10:39:51;;;;;;;74.10;49.83;;;;;;;3.93;78.10;101319.41;125397;1108;27957;-80
2020/12/21 10:42:20;;;;;;;85.80;52.60;;;;;;;3.94;78.06;101315.70;125693;1108;23487;-78
2020/12/21 10:44:48;;;;;;;88.87;52.87;;;;;;;3.94;78.18;101313.01;125729;1107;23370;-77
2020/12/21 10:47:16;;;;;;;109.37;66.20;;;;;;;3.93;78.00;101314.00;125764;1107;23440;-79
2020/12/21 10:49:44;;;;;;;96.67;59.20;;;;;;;3.92;78.41;101310.42;125792;1108;23835;-79
2020/12/21 10:52:13;;;;;;;101.45;59.83;;;;;;;3.96;78.51;101313.74;125574;1108;24116;-77
2020/12/21 10:54:41;;;;;;;90.35;54.33;;;;;;;3.96;78.21;101300.24;125503;1108;23501;-77
2020/12/21 10:57:09;;;;;;;86.78;56.37;;;;;;;3.96;78.63;101302.94;125599;1107;23440;-78
2020/12/21 10:59:37;;;;;;;83.75;54.98;;;;;;;3.96;78.29;101303.80;125552;1107;26891;-78
2020/12/21 11:02:07;;;;;;;88.00;57.93;;;;;;;3.93;78.49;101300.51;125838;1108;23953;-78
2020/12/21 11:04:35;;;;;;;88.05;63.17;;;;;;;3.93;78.32;101301.36;126129;1108;23388;-78
2020/12/21 11:07:03;;;;;;;97.97;64.42;;;;;;;3.96;78.48;101303.80;126005;1108;23629;-80
2020/12/21 11:09:31;;;;;;;89.25;58.87;;;;;;;3.97;78.69;101302.83;126196;1108;23370;-79
2020/12/21 11:11:59;;;;;;;85.75;59.40;;;;;;;3.97;78.51;101296.55;126255;1108;23574;-77
2020/12/21 11:14:27;;;;;;;89.37;61.20;;;;;;;3.98;78.82;101299.13;125968;1107;23385;-80
2020/12/21 11:16:57;;;;;;;82.53;59.90;;;;;;;4.02;79.34;101299.75;125858;1107;23369;-78
2020/12/21 11:19:25;;;;;;;77.10;53.80;;;;;;;4.08;79.24;101301.95;126002;1108;24725;-78